createdAt,value
2022-09-21T00:01:15.087Z,46.90
2022-09-21T00:03:42.228Z,46.69
2022-09-21T00:06:09.219Z,46.74
2022-09-21T00:08:36.230Z,46.92
2022-09-21T00:11:05.554Z,46.57
2022-09-21T00:13:33.411Z,46.49
2022-09-21T00:16:00.459Z,46.57
2022-09-21T00:18:27.449Z,46.41
2022-09-21T00:20:54.491Z,46.73
2022-09-21T00:23:21.595Z,46.51
2022-09-21T00:25:48.598Z,46.72
2022-09-21T00:28:15.654Z,46.54
2022-09-21T00:30:42.643Z,46.44
2022-09-21T00:33:09.642Z,46.48
2022-09-21T00:35:36.686Z,46.16
2022-09-21T00:38:03.750Z,46.24
2022-09-21T00:40:30.870Z,46.07
2022-09-21T00:42:57.909Z,46.47
2022-09-21T00:45:24.930Z,46.47
2022-09-21T00:47:52.035Z,46.18
2022-09-21T00:50:19.085Z,46.34
2022-09-21T00:52:46.074Z,46.23
2022-09-21T00:55:13.065Z,46.11
2022-09-21T00:57:40.774Z,46.03
2022-09-21T01:00:08.649Z,46.12
2022-09-21T01:02:35.657Z,45.95
2022-09-21T01:05:02.652Z,45.86
2022-09-21T01:07:29.650Z,46.29
2022-09-21T01:09:57.291Z,46.06
2022-09-21T01:12:24.798Z,46.24
2022-09-21T01:14:51.785Z,46.13
2022-09-21T01:17:18.786Z,46.21
2022-09-21T01:19:45.911Z,45.88
2022-09-21T01:22:12.917Z,45.99
2022-09-21T01:24:40.048Z,46.11
2022-09-21T01:27:07.057Z,46.19
2022-09-21T01:29:34.121Z,45.78
2022-09-21T01:32:01.122Z,45.88
2022-09-21T01:34:28.109Z,45.76
2022-09-21T01:36:55.236Z,45.84
2022-09-21T01:39:22.237Z,45.73
2022-09-21T01:41:49.226Z,45.79
2022-09-21T01:44:16.262Z,45.96
2022-09-21T01:46:43.254Z,45.97
2022-09-21T01:49:10.686Z,46.03
2022-09-21T01:51:37.683Z,46.18
2022-09-21T01:54:04.996Z,45.71
2022-09-21T01:56:32.023Z,45.82
2022-09-21T01:58:59.025Z,46.24
2022-09-21T02:01:26.024Z,46.00
2022-09-21T02:03:53.090Z,45.95
2022-09-21T02:06:20.195Z,46.17
2022-09-21T02:08:47.188Z,46.19
2022-09-21T02:11:14.230Z,46.22
2022-09-21T02:13:41.547Z,45.98
2022-09-21T02:16:08.917Z,45.78
2022-09-21T02:18:35.970Z,45.95
2022-09-21T02:21:03.049Z,46.05
2022-09-21T02:23:31.420Z,45.97
2022-09-21T02:25:58.418Z,46.33
2022-09-21T02:28:25.542Z,45.86
2022-09-21T02:30:52.577Z,45.98
2022-09-21T02:33:19.566Z,46.05
2022-09-21T02:35:46.559Z,46.23
2022-09-21T02:38:13.546Z,46.19
2022-09-21T02:40:40.566Z,46.14
2022-09-21T02:43:07.550Z,46.19
2022-09-21T02:45:34.780Z,46.21
2022-09-21T02:48:01.817Z,46.18
2022-09-21T02:50:28.809Z,46.34
2022-09-21T02:52:55.900Z,46.37
2022-09-21T02:55:22.941Z,46.15
2022-09-21T02:57:49.930Z,45.96
2022-09-21T03:00:16.976Z,46.40
2022-09-21T03:02:44.031Z,46.40
2022-09-21T03:05:11.026Z,46.31
2022-09-21T03:07:38.047Z,46.08
2022-09-21T03:10:05.042Z,46.28
2022-09-21T03:12:32.751Z,46.26
2022-09-21T03:15:00.216Z,46.15
2022-09-21T03:17:27.820Z,46.42
2022-09-21T03:19:55.278Z,46.17
2022-09-21T03:22:22.341Z,46.33
2022-09-21T03:24:49.377Z,46.29
2022-09-21T03:27:16.370Z,46.05
2022-09-21T03:29:43.434Z,46.24
2022-09-21T03:32:10.468Z,46.18
2022-09-21T03:34:37.503Z,46.36
2022-09-21T03:37:04.512Z,46.38
2022-09-21T03:39:31.868Z,46.10
2022-09-21T03:41:58.869Z,46.38
2022-09-21T03:44:25.891Z,46.10
2022-09-21T03:46:52.902Z,46.21
2022-09-21T03:49:19.902Z,46.15
2022-09-21T03:51:46.912Z,46.34
2022-09-21T03:54:13.918Z,46.11
2022-09-21T03:56:41.037Z,46.35
2022-09-21T03:59:11.878Z,46.52
2022-09-21T04:01:40.362Z,46.43
2022-09-21T04:04:07.385Z,46.46
2022-09-21T04:06:34.373Z,46.28
2022-09-21T04:09:02.987Z,46.14
2022-09-21T04:11:30.168Z,46.19
2022-09-21T04:13:57.371Z,46.47
2022-09-21T04:16:24.562Z,46.19
2022-09-21T04:18:51.546Z,46.05
2022-09-21T04:21:18.583Z,46.43
2022-09-21T04:23:45.605Z,46.04
2022-09-21T04:26:13.408Z,46.04
2022-09-21T04:28:40.405Z,46.37
2022-09-21T04:31:07.415Z,46.03
2022-09-21T04:33:34.640Z,46.09
2022-09-21T04:36:01.969Z,46.23
2022-09-21T04:38:28.998Z,46.13
2022-09-21T04:40:56.161Z,46.35
2022-09-21T04:43:23.313Z,46.38
2022-09-21T04:45:50.366Z,46.09
2022-09-21T04:48:18.052Z,46.22
2022-09-21T04:50:45.055Z,45.95
2022-09-21T04:53:12.142Z,46.33
2022-09-21T04:55:39.146Z,46.00
2022-09-21T04:58:06.134Z,46.01
2022-09-21T05:00:33.686Z,45.87
2022-09-21T05:03:00.690Z,46.27
2022-09-21T05:05:27.687Z,46.34
2022-09-21T05:07:54.783Z,45.85
2022-09-21T05:10:21.829Z,46.32
2022-09-21T05:12:48.825Z,46.28
2022-09-21T05:15:15.835Z,46.31
2022-09-21T05:17:42.979Z,46.27
2022-09-21T05:20:10.031Z,46.04
2022-09-21T05:22:37.419Z,45.81
2022-09-21T05:25:04.512Z,46.09
2022-09-21T05:27:31.510Z,45.91
2022-09-21T05:29:58.683Z,45.81
2022-09-21T05:32:26.181Z,45.90
2022-09-21T05:34:53.249Z,45.94
2022-09-21T05:37:20.416Z,46.09
2022-09-21T05:39:47.405Z,45.85
2022-09-21T05:42:14.483Z,45.76
2022-09-21T05:44:41.498Z,45.84
2022-09-21T05:47:08.522Z,45.96
2022-09-21T05:49:35.589Z,45.59
2022-09-21T05:52:02.581Z,45.67
2022-09-21T05:54:29.594Z,45.66
2022-09-21T05:56:56.746Z,45.82
2022-09-21T05:59:23.781Z,45.66
2022-09-21T06:01:51.034Z,45.47
2022-09-21T06:04:18.080Z,45.47
2022-09-21T06:06:45.139Z,45.59
2022-09-21T06:09:12.152Z,45.40
2022-09-21T06:11:39.151Z,45.52
2022-09-21T06:14:06.623Z,45.74
2022-09-21T06:16:33.745Z,45.54
2022-09-21T06:19:00.776Z,45.33
2022-09-21T06:21:27.799Z,45.31
2022-09-21T06:23:54.786Z,45.52
2022-09-21T06:26:21.839Z,45.40
2022-09-21T06:28:49.066Z,45.21
2022-09-21T06:31:16.064Z,45.16
2022-09-21T06:33:47.467Z,45.20
2022-09-21T06:36:15.182Z,45.40
2022-09-21T06:38:42.192Z,45.26
2022-09-21T06:41:09.186Z,45.23
2022-09-21T06:43:36.195Z,45.07
2022-09-21T06:46:03.293Z,45.45
2022-09-21T06:48:30.335Z,45.29
2022-09-21T06:50:57.881Z,45.17
2022-09-21T06:53:24.874Z,45.10
2022-09-21T06:55:52.381Z,45.13
2022-09-21T06:58:19.373Z,45.13
2022-09-21T07:00:46.619Z,45.27
2022-09-21T07:03:13.716Z,45.45
2022-09-21T07:05:40.733Z,45.33
2022-09-21T07:10:04.914Z,45.31
2022-09-21T07:10:54.775Z,45.30
2022-09-21T07:13:21.794Z,45.24
2022-09-21T07:15:53.182Z,45.41
2022-09-21T07:18:21.219Z,45.24
2022-09-21T07:20:49.188Z,45.47
2022-09-21T07:23:16.194Z,45.48
2022-09-21T07:25:43.905Z,45.09
2022-09-21T07:28:11.042Z,45.15
2022-09-21T07:30:38.243Z,45.04
2022-09-21T07:33:05.234Z,45.16
2022-09-21T07:35:32.227Z,45.19
2022-09-21T07:37:59.309Z,44.95
2022-09-21T07:40:26.323Z,45.21
2022-09-21T07:42:53.389Z,44.98
2022-09-21T07:45:20.419Z,44.86
2022-09-21T07:47:47.518Z,44.94
2022-09-21T07:50:14.722Z,45.14
2022-09-21T07:52:42.183Z,45.06
2022-09-21T07:55:09.181Z,45.01
2022-09-21T07:57:54.935Z,45.03
2022-09-21T08:00:22.489Z,44.92
2022-09-21T08:02:49.584Z,44.82
2022-09-21T08:05:16.695Z,44.65
2022-09-21T08:07:43.727Z,44.87
2022-09-21T08:10:11.010Z,44.92
2022-09-21T08:12:38.181Z,44.89
2022-09-21T08:15:05.183Z,45.09
2022-09-21T08:17:32.292Z,45.47
2022-09-21T08:19:59.295Z,45.43
2022-09-21T08:22:26.295Z,45.31
2022-09-21T08:24:53.288Z,45.24
2022-09-21T08:27:20.372Z,45.19
2022-09-21T08:29:47.394Z,45.44
2022-09-21T08:32:33.097Z,45.49
2022-09-21T08:35:01.382Z,45.65
2022-09-21T08:37:29.484Z,45.30
2022-09-21T08:39:56.479Z,45.51
2022-09-21T08:42:23.478Z,45.12
2022-09-21T08:44:50.494Z,45.53
2022-09-21T08:47:17.487Z,45.26
2022-09-21T08:49:44.487Z,45.33
2022-09-21T08:52:14.766Z,45.03
2022-09-21T08:54:42.726Z,45.13
2022-09-21T08:57:09.727Z,45.15
2022-09-21T08:59:36.739Z,45.82
2022-09-21T09:02:04.167Z,45.32
2022-09-21T09:04:31.258Z,45.07
2022-09-21T09:07:01.495Z,45.14
2022-09-21T09:09:28.688Z,45.24
2022-09-21T09:11:55.731Z,45.29
2022-09-21T09:14:22.791Z,45.21
2022-09-21T09:16:49.852Z,45.48
2022-09-21T09:19:16.871Z,45.34
2022-09-21T09:21:43.894Z,44.97
2022-09-21T09:24:10.945Z,45.08
2022-09-21T09:26:39.899Z,45.03
2022-09-21T09:29:06.902Z,45.16
2022-09-21T09:31:34.063Z,45.16
2022-09-21T09:34:01.145Z,44.78
2022-09-21T09:36:53.820Z,44.81
2022-09-21T09:39:15.452Z,45.14
2022-09-21T09:41:42.459Z,44.97
2022-09-21T09:44:09.476Z,45.09
2022-09-21T09:46:36.572Z,45.08
2022-09-21T09:49:03.583Z,45.04
2022-09-21T09:51:30.688Z,45.22
2022-09-21T09:53:57.695Z,45.32
2022-09-21T09:56:24.687Z,45.45
2022-09-21T09:58:51.714Z,44.93
2022-09-21T10:01:18.789Z,45.34
2022-09-21T10:03:46.187Z,44.90
2022-09-21T10:06:13.182Z,45.06
2022-09-21T10:08:41.972Z,45.16
2022-09-21T10:11:09.072Z,45.04
2022-09-21T10:13:36.107Z,45.11
2022-09-21T10:16:03.141Z,44.91
2022-09-21T10:18:30.815Z,45.31
2022-09-21T10:20:57.901Z,45.19
2022-09-21T10:23:24.927Z,44.92
2022-09-21T10:25:51.965Z,45.31
2022-09-21T10:28:18.979Z,45.27
2022-09-21T10:30:46.029Z,45.21
2022-09-21T10:33:13.445Z,45.28
2022-09-21T10:35:40.444Z,45.40
2022-09-21T10:38:07.517Z,45.24
2022-09-21T10:40:34.579Z,45.46
2022-09-21T10:43:01.694Z,45.50
2022-09-21T10:45:28.750Z,45.40
2022-09-21T10:47:55.746Z,45.34
2022-09-21T10:50:22.774Z,45.47
2022-09-21T10:52:49.878Z,45.50
2022-09-21T10:55:16.878Z,45.60
2022-09-21T10:57:43.920Z,45.52
2022-09-21T11:00:10.945Z,45.66
2022-09-21T11:02:39.125Z,45.61
2022-09-21T11:05:06.201Z,45.46
2022-09-21T11:07:34.172Z,45.46
2022-09-21T11:10:01.237Z,45.58
2022-09-21T11:12:28.246Z,45.52
2022-09-21T11:14:55.311Z,45.29
2022-09-21T11:17:22.313Z,45.54
2022-09-21T11:19:49.453Z,45.57
2022-09-21T11:22:16.588Z,45.72
2022-09-21T11:24:43.627Z,45.67
2022-09-21T11:27:11.166Z,45.62
2022-09-21T11:29:38.214Z,45.39
2022-09-21T11:32:06.119Z,45.66
2022-09-21T11:34:33.851Z,45.59
2022-09-21T11:37:00.838Z,45.62
2022-09-21T11:39:27.838Z,45.71
2022-09-21T11:41:55.084Z,45.46
2022-09-21T11:44:22.157Z,45.23
2022-09-21T11:46:49.188Z,45.52
2022-09-21T11:49:16.996Z,45.66
2022-09-21T11:51:45.000Z,45.49
2022-09-21T11:54:12.982Z,45.88
2022-09-21T11:56:43.879Z,45.90
2022-09-21T11:59:11.063Z,45.63
2022-09-21T12:01:38.062Z,45.69
2022-09-21T12:04:05.095Z,45.63
2022-09-21T12:06:32.311Z,45.58
2022-09-21T12:08:59.311Z,45.62
2022-09-21T12:11:26.360Z,45.49
2022-09-21T12:13:53.378Z,45.83
2022-09-21T12:16:20.503Z,45.76
2022-09-21T12:18:48.258Z,45.43
2022-09-21T12:21:15.267Z,45.41
2022-09-21T12:23:42.359Z,45.54
2022-09-21T12:26:09.631Z,45.60
2022-09-21T12:28:37.615Z,45.59
2022-09-21T12:31:05.165Z,45.51
2022-09-21T12:33:33.170Z,45.84
2022-09-21T12:36:00.211Z,45.52
2022-09-21T12:38:27.331Z,45.38
2022-09-21T12:40:54.432Z,45.63
2022-09-21T12:43:21.494Z,45.88
2022-09-21T12:45:48.526Z,45.62
2022-09-21T12:48:15.628Z,45.40
2022-09-21T12:50:43.616Z,45.51
2022-09-21T12:53:10.622Z,45.44
2022-09-21T12:55:37.643Z,45.54
2022-09-21T12:58:15.187Z,45.39
2022-09-21T13:00:43.048Z,45.31
2022-09-21T13:03:10.656Z,45.30
2022-09-21T13:05:37.755Z,45.36
2022-09-21T13:08:04.813Z,45.21
2022-09-21T13:10:31.843Z,45.32
2022-09-21T13:12:59.952Z,45.41
2022-09-21T13:15:27.394Z,45.54
2022-09-21T13:17:54.715Z,45.19
2022-09-21T13:20:21.761Z,45.42
2022-09-21T13:22:49.054Z,45.19
2022-09-21T13:25:16.059Z,45.40
2022-09-21T13:27:43.102Z,45.27
2022-09-21T13:30:10.134Z,45.15
2022-09-21T13:32:37.639Z,45.45
2022-09-21T13:35:04.639Z,45.04
2022-09-21T13:37:31.729Z,45.18
2022-09-21T13:39:58.737Z,45.05
2022-09-21T13:42:25.726Z,44.72
2022-09-21T13:44:52.730Z,45.14
2022-09-21T13:47:19.721Z,45.31
2022-09-21T13:49:46.743Z,45.13
2022-09-21T13:52:13.755Z,45.14
2022-09-21T13:54:40.751Z,44.97
2022-09-21T13:57:09.552Z,45.16
2022-09-21T13:59:36.620Z,45.36
2022-09-21T14:02:03.868Z,45.11
2022-09-21T14:04:30.954Z,45.32
2022-09-21T14:06:57.964Z,45.24
2022-09-21T14:09:24.997Z,45.33
2022-09-21T14:11:52.435Z,44.98
2022-09-21T14:14:19.514Z,45.40
2022-09-21T14:16:47.404Z,45.41
2022-09-21T14:19:14.672Z,45.19
2022-09-21T14:21:41.666Z,45.59
2022-09-21T14:24:09.023Z,45.45
2022-09-21T14:26:36.066Z,45.34
2022-09-21T14:29:03.447Z,45.43
2022-09-21T14:31:30.467Z,45.44
2022-09-21T14:33:58.642Z,44.89
2022-09-21T14:36:28.832Z,44.89
2022-09-21T14:38:58.283Z,45.20
2022-09-21T14:41:25.351Z,45.14
2022-09-21T14:43:52.993Z,45.14
2022-09-21T14:46:20.070Z,45.04
2022-09-21T14:48:50.202Z,45.46
2022-09-21T14:51:18.387Z,45.48
2022-09-21T14:53:45.442Z,45.27
2022-09-21T14:56:12.456Z,46.20
2022-09-21T14:58:42.927Z,45.69
2022-09-21T15:01:12.051Z,46.14
2022-09-21T15:03:39.762Z,45.71
2022-09-21T15:06:26.799Z,45.43
2022-09-21T15:09:12.434Z,45.24
2022-09-21T15:11:39.480Z,45.27
2022-09-21T15:14:06.475Z,45.50
2022-09-21T15:16:35.606Z,45.35
2022-09-21T15:19:04.274Z,45.35
2022-09-21T15:21:32.906Z,45.08
2022-09-21T15:24:00.255Z,45.32
2022-09-21T15:26:29.370Z,45.57
2022-09-21T15:29:11.523Z,45.91
2022-09-21T15:31:38.677Z,45.63
2022-09-21T15:34:05.766Z,45.56
2022-09-21T15:36:34.211Z,44.71
2022-09-21T15:39:01.218Z,45.10
2022-09-21T15:41:28.226Z,44.59
2022-09-21T15:43:57.977Z,44.94
2022-09-21T15:46:25.019Z,45.06
2022-09-21T15:48:52.344Z,45.60
2022-09-21T15:51:22.252Z,44.33
2022-09-21T15:53:49.294Z,44.38
2022-09-21T15:56:16.303Z,45.23
2022-09-21T15:58:45.888Z,44.86
2022-09-21T16:01:12.923Z,45.16
2022-09-21T16:03:40.053Z,45.13
2022-09-21T16:06:07.099Z,45.33
2022-09-21T16:08:34.514Z,45.47
2022-09-21T16:11:01.528Z,45.63
2022-09-21T16:13:47.577Z,45.32
2022-09-21T16:16:14.542Z,45.43
2022-09-21T16:18:43.076Z,45.38
2022-09-21T16:21:10.316Z,45.51
2022-09-21T16:23:39.480Z,45.45
2022-09-21T16:26:06.580Z,45.32
2022-09-21T16:28:33.662Z,45.62
2022-09-21T16:31:00.797Z,45.17
2022-09-21T16:33:27.823Z,45.24
2022-09-21T16:35:56.697Z,45.23
2022-09-21T16:38:23.748Z,45.45
2022-09-21T16:40:54.037Z,45.51
2022-09-21T16:43:23.255Z,45.50
2022-09-21T16:45:50.268Z,45.50
2022-09-21T16:48:17.274Z,45.61
2022-09-21T16:50:44.283Z,45.67
2022-09-21T16:53:11.313Z,45.59
2022-09-21T16:55:38.311Z,45.56
2022-09-21T16:58:05.355Z,45.62
2022-09-21T17:00:32.479Z,45.50
2022-09-21T17:03:02.341Z,45.14
2022-09-21T17:05:29.388Z,45.09
2022-09-21T17:07:56.880Z,45.29
2022-09-21T17:10:29.198Z,45.58
2022-09-21T17:13:03.208Z,45.09
2022-09-21T17:15:32.599Z,45.07
2022-09-21T17:17:59.598Z,45.24
2022-09-21T17:20:26.612Z,45.09
2022-09-21T17:22:53.620Z,45.13
2022-09-21T17:25:20.636Z,45.18
2022-09-21T17:27:47.622Z,45.43
2022-09-21T17:30:15.676Z,45.13
2022-09-21T17:32:43.178Z,45.15
2022-09-21T17:35:10.230Z,45.20
2022-09-21T17:37:38.339Z,45.23
2022-09-21T17:40:10.524Z,45.21
2022-09-21T17:42:37.983Z,45.34
2022-09-21T17:45:06.849Z,45.14
2022-09-21T17:47:34.995Z,45.06
2022-09-21T17:50:02.461Z,45.25
2022-09-21T17:52:48.109Z,44.96
2022-09-21T17:55:15.117Z,45.18
2022-09-21T17:57:42.141Z,44.76
2022-09-21T18:00:10.079Z,45.02
2022-09-21T18:02:46.191Z,45.02
2022-09-21T18:05:13.236Z,45.11
2022-09-21T18:07:41.196Z,45.27
2022-09-21T18:10:08.191Z,45.15
2022-09-21T18:12:37.387Z,45.21
2022-09-21T18:15:05.147Z,45.33
2022-09-21T18:17:33.286Z,44.90
2022-09-21T18:20:00.302Z,45.05
2022-09-21T18:22:27.298Z,44.86
2022-09-21T18:24:54.740Z,45.01
2022-09-21T18:27:23.181Z,44.86
2022-09-21T18:29:50.187Z,44.88
2022-09-21T18:32:17.207Z,44.80
2022-09-21T18:34:44.435Z,44.67
2022-09-21T18:37:12.922Z,44.86
2022-09-21T18:39:40.091Z,44.61
2022-09-21T18:42:07.121Z,44.78
2022-09-21T18:44:34.120Z,44.68
2022-09-21T18:47:01.198Z,44.89
2022-09-21T18:49:29.059Z,44.83
2022-09-21T18:51:57.103Z,44.73
2022-09-21T18:54:24.301Z,44.40
2022-09-21T18:56:51.306Z,44.50
2022-09-21T18:59:18.348Z,44.74
2022-09-21T19:01:45.518Z,44.83
2022-09-21T19:04:12.660Z,44.72
2022-09-21T19:06:39.790Z,44.71
2022-09-21T19:09:07.032Z,44.89
2022-09-21T19:11:34.794Z,44.72
2022-09-21T19:14:01.916Z,44.70
2022-09-21T19:16:28.938Z,44.41
2022-09-21T19:18:55.995Z,44.47
2022-09-21T19:21:23.023Z,44.33
2022-09-21T19:23:50.050Z,44.41
2022-09-21T19:26:18.167Z,44.19
2022-09-21T19:28:45.175Z,44.14
2022-09-21T19:31:12.243Z,44.36
2022-09-21T19:33:49.854Z,44.30
2022-09-21T19:36:17.332Z,44.54
2022-09-21T19:38:44.342Z,44.38
2022-09-21T19:41:11.359Z,44.32
2022-09-21T19:43:38.405Z,44.42
2022-09-21T19:46:05.561Z,44.26
2022-09-21T19:48:34.318Z,44.42
2022-09-21T19:51:01.324Z,44.55
2022-09-21T19:53:47.293Z,44.71
2022-09-21T19:56:32.749Z,44.48
2022-09-21T19:59:18.595Z,44.55
2022-09-21T20:01:49.589Z,44.37
2022-09-21T20:04:16.616Z,44.22
2022-09-21T20:06:44.057Z,44.21
2022-09-21T20:09:11.050Z,44.38
2022-09-21T20:11:38.052Z,44.29
2022-09-21T20:14:06.357Z,44.10
2022-09-21T20:16:33.430Z,44.55
2022-09-21T20:19:00.534Z,44.50
2022-09-21T20:21:27.518Z,44.61
2022-09-21T20:23:54.794Z,44.41
2022-09-21T20:26:23.531Z,44.50
2022-09-21T20:28:52.092Z,44.30
2022-09-21T20:31:19.196Z,44.37
2022-09-21T20:33:46.303Z,44.45
2022-09-21T20:36:15.227Z,44.33
2022-09-21T20:38:42.347Z,44.59
2022-09-21T20:41:09.372Z,44.65
2022-09-21T20:43:36.382Z,44.87
2022-09-21T20:46:03.484Z,44.65
2022-09-21T20:48:30.530Z,44.76
2022-09-21T20:50:59.058Z,44.89
2022-09-21T20:53:26.111Z,45.02
2022-09-21T20:55:53.129Z,44.85
2022-09-21T20:58:20.138Z,45.12
2022-09-21T21:00:47.146Z,45.22
2022-09-21T21:03:14.406Z,44.96
2022-09-21T21:05:41.626Z,44.81
2022-09-21T21:08:09.151Z,45.05
2022-09-21T21:10:37.096Z,45.28
2022-09-21T21:13:04.175Z,45.00
2022-09-21T21:15:31.909Z,44.91
2022-09-21T21:17:59.083Z,45.06
2022-09-21T21:20:26.110Z,45.25
2022-09-21T21:22:53.760Z,45.05
2022-09-21T21:25:20.786Z,44.96
2022-09-21T21:27:47.806Z,45.04
2022-09-21T21:30:15.548Z,45.30
2022-09-21T21:32:42.960Z,45.37
2022-09-21T21:35:10.026Z,45.13
2022-09-21T21:37:37.450Z,45.00
2022-09-21T21:40:04.504Z,45.50
2022-09-21T21:42:31.732Z,45.29
2022-09-21T21:44:58.726Z,45.45
2022-09-21T21:47:39.245Z,45.28
2022-09-21T21:50:07.460Z,45.39
2022-09-21T21:52:34.468Z,45.39
2022-09-21T21:55:02.457Z,45.22
2022-09-21T21:57:29.562Z,45.54
2022-09-21T21:59:56.563Z,45.01
2022-09-21T22:02:24.323Z,45.42
2022-09-21T22:04:51.395Z,45.24
2022-09-21T22:07:18.396Z,45.16
2022-09-21T22:09:45.390Z,45.29
2022-09-21T22:12:12.388Z,45.33
2022-09-21T22:14:39.674Z,45.12
2022-09-21T22:17:06.766Z,45.43
2022-09-21T22:19:33.798Z,45.45
2022-09-21T22:22:00.812Z,45.36
2022-09-21T22:24:27.858Z,45.28
2022-09-21T22:26:54.867Z,45.12
2022-09-21T22:29:21.881Z,45.38
2022-09-21T22:31:49.014Z,45.43
2022-09-21T22:34:16.094Z,45.37
2022-09-21T22:36:46.156Z,45.08
2022-09-21T22:39:13.215Z,45.08
2022-09-21T22:41:40.256Z,45.36
2022-09-21T22:44:07.251Z,44.95
2022-09-21T22:46:34.270Z,45.16
2022-09-21T22:49:01.310Z,45.26
2022-09-21T22:51:28.422Z,44.93
2022-09-21T22:53:55.417Z,45.12
2022-09-21T22:56:22.488Z,44.84
2022-09-21T22:58:49.479Z,45.04
2022-09-21T23:01:19.757Z,45.18
2022-09-21T23:03:46.873Z,44.75
2022-09-21T23:06:13.944Z,44.84
2022-09-21T23:08:41.665Z,44.87
2022-09-21T23:11:08.670Z,45.09
2022-09-21T23:13:35.741Z,44.68
2022-09-21T23:16:03.037Z,44.90
2022-09-21T23:18:30.139Z,44.60
2022-09-21T23:20:57.159Z,44.67
2022-09-21T23:23:25.035Z,44.79
2022-09-21T23:25:52.029Z,44.94
2022-09-21T23:28:19.048Z,44.79
2022-09-21T23:30:46.215Z,44.94
2022-09-21T23:33:13.348Z,44.56
2022-09-21T23:35:40.361Z,44.82
2022-09-21T23:38:07.365Z,44.51
2022-09-21T23:40:34.513Z,44.81
2022-09-21T23:43:01.622Z,44.52
2022-09-21T23:45:28.614Z,44.69
2022-09-21T23:47:55.609Z,44.73
2022-09-21T23:50:22.618Z,44.48
2022-09-21T23:52:49.632Z,44.46
2022-09-21T23:55:16.636Z,44.44
2022-09-21T23:57:43.650Z,44.49
